createdAt,value
2022-11-19T00:01:32.773Z,15.02
2022-11-19T00:04:02.988Z,14.18
2022-11-19T00:06:34.516Z,15.30
2022-11-19T00:09:06.404Z,14.18
2022-11-19T00:11:56.253Z,16.38
2022-11-19T00:14:26.734Z,14.68
2022-11-19T00:16:57.134Z,20.83
2022-11-19T00:19:27.514Z,20.83
2022-11-19T00:21:57.857Z,20.58
2022-11-19T00:24:31.342Z,20.48
2022-11-19T00:27:01.793Z,22.05
2022-11-19T00:29:32.518Z,21.27
2022-11-19T00:32:02.792Z,23.92
2022-11-19T00:34:33.153Z,20.58
2022-11-19T00:37:03.640Z,22.23
2022-11-19T00:39:34.407Z,21.23
2022-11-19T00:42:05.038Z,20.47
2022-11-19T00:44:37.457Z,20.60
2022-11-19T00:47:08.451Z,21.40
2022-11-19T00:49:38.960Z,22.52
2022-11-19T00:52:09.396Z,23.88
2022-11-19T00:54:39.900Z,21.07
2022-11-19T00:57:10.066Z,22.60
2022-11-19T00:59:40.194Z,25.33
2022-11-19T01:02:10.368Z,25.50
2022-11-19T01:04:40.752Z,26.17
2022-11-19T01:07:11.156Z,38.30
2022-11-19T01:09:41.519Z,34.58
2022-11-19T01:12:11.866Z,240.05
2022-11-19T01:14:42.129Z,37.78
2022-11-19T01:17:12.584Z,58.33
2022-11-19T01:19:43.016Z,38.80
2022-11-19T01:22:13.078Z,35.33
2022-11-19T01:24:43.373Z,33.15
2022-11-19T01:27:13.713Z,37.38
2022-11-19T01:29:44.048Z,31.08
2022-11-19T01:32:15.491Z,30.85
2022-11-19T01:34:46.043Z,35.83
2022-11-19T01:37:16.487Z,31.13
2022-11-19T01:39:46.816Z,33.17
2022-11-19T01:42:52.701Z,39.25
2022-11-19T01:45:29.566Z,30.90
2022-11-19T01:48:09.004Z,36.05
2022-11-19T01:50:48.162Z,34.05
2022-11-19T01:53:22.607Z,38.20
2022-11-19T01:55:53.635Z,39.20
2022-11-19T01:58:26.854Z,37.25
2022-11-19T02:00:57.290Z,35.25
2022-11-19T02:03:30.911Z,42.00
2022-11-19T02:06:04.511Z,38.80
2022-11-19T02:08:42.241Z,37.65
2022-11-19T02:11:18.512Z,37.30
2022-11-19T02:14:10.381Z,36.20
2022-11-19T02:17:02.306Z,32.20
2022-11-19T02:20:10.297Z,30.30
2022-11-19T02:22:59.077Z,34.67
2022-11-19T02:25:41.555Z,29.23
2022-11-19T02:28:34.519Z,26.92
2022-11-19T02:31:24.178Z,25.10
2022-11-19T02:34:03.257Z,26.00
2022-11-19T02:37:23.161Z,20.92
2022-11-19T02:40:05.281Z,22.23
2022-11-19T02:42:46.971Z,22.60
2022-11-19T02:45:47.151Z,20.98
2022-11-19T02:48:25.463Z,20.30
2022-11-19T02:51:00.108Z,19.38
2022-11-19T02:53:30.916Z,20.45
2022-11-19T02:56:13.811Z,18.38
2022-11-19T02:59:13.664Z,16.55
2022-11-19T03:02:06.761Z,16.73
2022-11-19T03:04:37.423Z,17.52
2022-11-19T03:07:12.945Z,16.40
2022-11-19T03:09:48.703Z,14.55
2022-11-19T03:12:32.850Z,13.75
2022-11-19T03:15:30.761Z,13.07
2022-11-19T03:18:04.265Z,12.68
2022-11-19T03:20:47.520Z,12.85
2022-11-19T03:23:45.526Z,13.15
2022-11-19T03:26:32.379Z,14.30
2022-11-19T03:29:08.767Z,15.10
2022-11-19T03:31:42.427Z,15.38
2022-11-19T03:34:20.575Z,14.57
2022-11-19T03:36:53.675Z,17.33
2022-11-19T03:39:25.112Z,15.10
2022-11-19T03:44:55.783Z,13.52
2022-11-19T03:47:32.707Z,14.95
2022-11-19T03:50:14.451Z,14.90
2022-11-19T03:52:45.973Z,13.68
2022-11-19T03:55:16.715Z,13.82
2022-11-19T03:57:47.788Z,13.30
2022-11-19T04:02:09.443Z,30.25
2022-11-19T04:04:41.144Z,36.85
2022-11-19T04:07:17.245Z,15.73
2022-11-19T04:09:47.692Z,15.68
2022-11-19T04:12:21.256Z,19.10
2022-11-19T04:14:52.023Z,25.70
2022-11-19T04:17:22.929Z,14.48
2022-11-19T04:19:53.185Z,13.23
2022-11-19T04:22:23.472Z,14.07
2022-11-19T04:24:53.684Z,14.13
2022-11-19T04:27:24.034Z,14.20
2022-11-19T04:29:54.538Z,12.97
2022-11-19T04:32:25.919Z,98.95
2022-11-19T04:37:26.694Z,43.83
2022-11-19T04:39:57.048Z,34.77
2022-11-19T04:42:27.517Z,21.90
2022-11-19T04:44:57.845Z,18.93
2022-11-19T04:47:28.027Z,18.38
2022-11-19T04:49:58.269Z,50.38
2022-11-19T04:52:28.562Z,17.25
2022-11-19T04:54:58.836Z,14.93
2022-11-19T04:57:29.110Z,88.45
2022-11-19T04:59:59.341Z,66.03
2022-11-19T05:02:29.667Z,118.35
2022-11-19T05:04:59.960Z,30.73
2022-11-19T05:07:30.456Z,42.70
2022-11-19T05:10:00.592Z,14.07
2022-11-19T05:12:30.679Z,13.77
2022-11-19T05:15:01.989Z,13.13
2022-11-19T05:17:32.863Z,14.63
2022-11-19T05:20:03.286Z,14.30
2022-11-19T05:22:33.630Z,14.50
2022-11-19T05:25:03.927Z,12.43
2022-11-19T05:27:34.053Z,12.82
2022-11-19T05:30:04.600Z,12.97
2022-11-19T05:32:34.869Z,14.00
2022-11-19T05:35:08.307Z,13.60
2022-11-19T05:37:38.765Z,14.27
2022-11-19T05:40:09.886Z,13.07
2022-11-19T05:42:40.236Z,13.48
2022-11-19T05:45:11.499Z,13.30
2022-11-19T05:47:47.294Z,13.82
2022-11-19T05:50:18.951Z,13.27
2022-11-19T05:52:53.042Z,13.10
2022-11-19T05:55:23.709Z,14.03
2022-11-19T05:57:54.107Z,13.30
2022-11-19T06:00:24.560Z,11.53
2022-11-19T06:02:54.931Z,15.60
2022-11-19T06:05:25.285Z,16.02
2022-11-19T06:07:55.572Z,15.80
2022-11-19T06:10:25.862Z,13.80
2022-11-19T06:12:56.228Z,14.20
2022-11-19T06:15:27.218Z,15.02
2022-11-19T06:20:28.814Z,12.77
2022-11-19T06:23:00.198Z,13.33
2022-11-19T06:28:00.167Z,13.63
2022-11-19T06:30:30.514Z,13.90
2022-11-19T06:33:00.861Z,14.43
2022-11-19T06:35:31.092Z,14.95
2022-11-19T06:38:01.572Z,15.77
2022-11-19T06:40:31.998Z,15.13
2022-11-19T06:43:02.191Z,16.20
2022-11-19T06:45:32.590Z,15.38
2022-11-19T06:48:03.054Z,15.47
2022-11-19T06:50:34.065Z,14.77
2022-11-19T06:53:04.350Z,15.88
2022-11-19T06:55:34.872Z,17.00
2022-11-19T06:58:09.730Z,18.00
2022-11-19T07:00:40.274Z,17.67
2022-11-19T07:03:10.757Z,17.27
2022-11-19T07:05:41.168Z,17.67
2022-11-19T07:08:11.575Z,18.23
2022-11-19T07:10:42.609Z,18.27
2022-11-19T07:13:13.159Z,17.65
2022-11-19T07:15:43.730Z,17.77
2022-11-19T07:18:14.374Z,17.73
2022-11-19T07:20:47.324Z,18.30
2022-11-19T07:23:17.632Z,17.33
2022-11-19T07:25:47.976Z,17.95
2022-11-19T07:28:18.248Z,16.65
2022-11-19T07:30:48.670Z,14.80
2022-11-19T07:33:18.974Z,13.80
2022-11-19T07:35:49.306Z,15.77
2022-11-19T07:38:19.636Z,15.35
2022-11-19T07:40:59.967Z,16.98
2022-11-19T07:43:31.486Z,41.53
2022-11-19T07:46:01.852Z,16.52
2022-11-19T07:48:33.073Z,16.43
2022-11-19T07:51:03.507Z,15.07
2022-11-19T07:53:33.951Z,14.95
2022-11-19T07:56:05.245Z,16.27
2022-11-19T07:58:35.495Z,16.23
2022-11-19T08:01:14.307Z,16.03
2022-11-19T08:03:45.110Z,16.92
2022-11-19T08:06:21.280Z,17.42
2022-11-19T08:08:51.705Z,16.52
2022-11-19T08:11:22.399Z,16.30
2022-11-19T08:13:52.922Z,15.13
2022-11-19T08:16:42.043Z,33.53
2022-11-19T08:19:15.094Z,16.15
2022-11-19T08:21:49.700Z,16.55
2022-11-19T08:24:23.309Z,15.98
2022-11-19T08:26:54.500Z,15.13
2022-11-19T08:29:25.999Z,15.23
2022-11-19T08:31:56.361Z,14.63
2022-11-19T08:34:27.246Z,15.05
2022-11-19T08:36:57.626Z,12.95
2022-11-19T08:39:29.130Z,11.85
2022-11-19T08:42:17.835Z,13.25
2022-11-19T08:44:48.146Z,13.38
2022-11-19T08:47:18.556Z,14.50
2022-11-19T08:49:49.079Z,12.53
2022-11-19T08:52:19.548Z,13.80
2022-11-19T08:54:50.082Z,18.10
2022-11-19T08:57:21.525Z,14.60
2022-11-19T08:59:51.744Z,15.13
2022-11-19T09:02:21.929Z,13.98
2022-11-19T09:04:52.109Z,16.42
2022-11-19T09:07:22.551Z,14.65
2022-11-19T09:09:53.009Z,16.03
2022-11-19T09:12:23.428Z,13.90
2022-11-19T09:14:53.807Z,15.82
2022-11-19T09:17:24.070Z,14.90
2022-11-19T09:19:54.392Z,15.05
2022-11-19T09:22:24.965Z,16.27
2022-11-19T09:24:55.397Z,14.07
2022-11-19T09:27:25.687Z,13.13
2022-11-19T09:29:56.134Z,14.35
2022-11-19T09:32:26.661Z,13.17
2022-11-19T09:34:56.946Z,18.48
2022-11-19T09:37:27.319Z,29.70
2022-11-19T09:39:57.607Z,14.30
2022-11-19T09:42:50.001Z,15.32
2022-11-19T09:45:37.979Z,13.07
2022-11-19T09:48:36.031Z,13.30
2022-11-19T09:51:32.229Z,13.32
2022-11-19T09:54:10.708Z,13.80
2022-11-19T09:56:52.705Z,13.38
2022-11-19T09:59:38.508Z,11.82
2022-11-19T10:02:24.094Z,11.65
2022-11-19T10:04:55.200Z,12.23
2022-11-19T10:07:57.926Z,12.55
2022-11-19T10:10:45.054Z,12.73
2022-11-19T10:13:34.977Z,12.52
2022-11-19T10:16:05.484Z,13.35
2022-11-19T10:18:42.350Z,13.98
2022-11-19T10:21:34.321Z,14.60
2022-11-19T10:24:21.288Z,10.98
2022-11-19T10:27:07.236Z,10.48
2022-11-19T10:29:42.670Z,10.10
2022-11-19T10:32:26.309Z,8.93
2022-11-19T10:35:00.882Z,8.07
2022-11-19T10:37:39.958Z,8.57
2022-11-19T10:40:23.758Z,6.50
2022-11-19T10:43:23.460Z,6.70
2022-11-19T10:45:54.763Z,7.25
2022-11-19T10:48:27.617Z,6.88
2022-11-19T10:51:01.321Z,5.90
2022-11-19T10:53:39.252Z,5.55
2022-11-19T10:56:17.086Z,5.50
2022-11-19T10:58:58.767Z,4.70
2022-11-19T11:01:37.302Z,4.75
2022-11-19T11:04:10.330Z,5.25
2022-11-19T11:07:01.056Z,5.00
2022-11-19T11:09:39.644Z,5.53
2022-11-19T11:12:46.751Z,5.72
2022-11-19T11:15:24.449Z,6.10
2022-11-19T11:18:11.596Z,6.07
2022-11-19T11:20:47.896Z,7.97
2022-11-19T11:23:19.975Z,6.90
2022-11-19T11:26:11.236Z,8.57
2022-11-19T11:28:57.290Z,8.73
2022-11-19T11:31:49.453Z,8.93
2022-11-19T11:34:28.676Z,9.13
2022-11-19T11:37:00.176Z,10.50
2022-11-19T11:39:42.169Z,8.48
2022-11-19T11:42:17.854Z,8.82
2022-11-19T11:45:01.236Z,7.85
2022-11-19T11:47:37.466Z,9.57
2022-11-19T11:50:20.910Z,9.32
2022-11-19T11:52:56.628Z,9.75
2022-11-19T11:55:26.893Z,9.90
2022-11-19T11:58:00.147Z,9.25
2022-11-19T12:00:43.462Z,9.98
2022-11-19T12:03:22.916Z,11.73
2022-11-19T12:06:13.806Z,12.40
2022-11-19T12:08:47.378Z,14.15
2022-11-19T12:11:56.929Z,14.38
2022-11-19T12:14:30.067Z,14.05
2022-11-19T12:17:28.725Z,13.95
2022-11-19T12:20:23.591Z,12.95
2022-11-19T12:23:25.040Z,13.38
2022-11-19T12:26:01.011Z,25.92
2022-11-19T12:28:52.620Z,34.50
2022-11-19T12:31:49.980Z,23.83
2022-11-19T12:34:57.416Z,20.17
2022-11-19T12:37:35.307Z,17.33
2022-11-19T12:40:24.135Z,14.38
2022-11-19T12:43:33.494Z,14.75
2022-11-19T12:46:25.454Z,14.20
2022-11-19T12:49:24.956Z,14.02
2022-11-19T12:52:26.931Z,14.23
2022-11-19T12:55:20.142Z,14.65
2022-11-19T12:57:59.440Z,13.57
2022-11-19T13:00:36.871Z,14.32
2022-11-19T13:03:33.808Z,16.65
2022-11-19T13:06:15.360Z,15.55
2022-11-19T13:09:19.682Z,15.90
2022-11-19T13:12:05.451Z,16.23
2022-11-19T13:15:53.853Z,99.50
2022-11-19T13:18:25.138Z,32.47
2022-11-19T13:23:36.063Z,29.30
2022-11-19T13:26:13.540Z,19.60
2022-11-19T13:29:02.535Z,38.70
2022-11-19T13:31:48.963Z,54.45
2022-11-19T13:34:21.751Z,19.02
2022-11-19T13:37:02.039Z,44.53
2022-11-19T13:39:41.841Z,32.60
2022-11-19T13:42:31.962Z,53.95
2022-11-19T13:45:02.805Z,816.33
2022-11-19T13:47:48.106Z,352.00
2022-11-19T13:50:32.530Z,383.70
2022-11-19T13:53:15.223Z,438.60
2022-11-19T13:55:47.346Z,480.50
2022-11-19T13:58:17.774Z,471.15
2022-11-19T14:01:11.056Z,475.30
2022-11-19T14:04:05.520Z,492.08
2022-11-19T14:07:11.932Z,437.02
2022-11-19T14:10:00.821Z,357.33
2022-11-19T14:12:38.472Z,484.85
2022-11-19T14:15:48.253Z,357.13
2022-11-19T14:18:54.915Z,727.17
2022-11-19T14:21:46.446Z,798.60
2022-11-19T14:24:49.463Z,314.52
2022-11-19T14:27:19.901Z,45.92
2022-11-19T14:29:50.076Z,611.53
2022-11-19T14:32:21.687Z,715.78
2022-11-19T14:35:03.759Z,698.45
2022-11-19T14:37:39.758Z,419.13
2022-11-19T14:40:26.417Z,608.13
2022-11-19T14:43:20.903Z,35.78
2022-11-19T14:46:06.290Z,68.70
2022-11-19T14:48:42.619Z,56.42
2022-11-19T14:51:29.425Z,17.60
2022-11-19T14:54:18.075Z,36.40
2022-11-19T14:57:01.666Z,72.68
2022-11-19T14:59:37.328Z,44.50
2022-11-19T15:02:26.097Z,26.48
2022-11-19T15:05:23.339Z,18.70
2022-11-19T15:08:14.793Z,17.92
2022-11-19T15:11:06.703Z,18.35
2022-11-19T15:13:42.801Z,24.75
2022-11-19T15:16:19.593Z,47.85
2022-11-19T15:18:49.962Z,17.85
2022-11-19T15:21:55.597Z,18.55
2022-11-19T15:24:29.148Z,16.98
2022-11-19T15:27:24.521Z,19.55
2022-11-19T15:30:09.508Z,19.10
2022-11-19T15:32:55.255Z,24.42
2022-11-19T15:35:43.725Z,18.70
2022-11-19T15:38:20.265Z,18.65
2022-11-19T15:40:53.913Z,17.77
2022-11-19T15:43:29.655Z,19.30
2022-11-19T15:46:22.925Z,18.55
2022-11-19T15:49:23.060Z,17.92
2022-11-19T15:52:00.137Z,18.45
2022-11-19T15:54:35.283Z,18.25
2022-11-19T15:57:25.586Z,18.65
2022-11-19T16:00:03.797Z,16.90
2022-11-19T16:02:42.979Z,16.77
2022-11-19T16:05:26.562Z,18.20
2022-11-19T16:07:58.956Z,17.33
2022-11-19T16:10:35.888Z,16.48
2022-11-19T16:13:45.189Z,16.65
2022-11-19T16:16:47.357Z,17.42
2022-11-19T16:19:19.509Z,16.55
2022-11-19T16:22:00.899Z,14.90
2022-11-19T16:24:51.380Z,15.38
2022-11-19T16:27:26.655Z,15.73
2022-11-19T16:29:57.280Z,16.15
2022-11-19T16:32:30.104Z,15.45
2022-11-19T16:35:14.638Z,49.92
2022-11-19T16:37:45.079Z,15.52
2022-11-19T16:40:18.188Z,14.27
2022-11-19T16:43:02.750Z,14.50
2022-11-19T16:45:35.114Z,13.57
2022-11-19T16:48:05.574Z,14.15
2022-11-19T16:50:46.520Z,13.17
2022-11-19T16:53:49.318Z,14.82
2022-11-19T16:56:19.715Z,15.02
2022-11-19T16:58:50.154Z,13.53
2022-11-19T17:01:23.440Z,13.90
2022-11-19T17:04:05.475Z,12.30
2022-11-19T17:06:39.334Z,14.38
2022-11-19T17:09:09.711Z,13.20
2022-11-19T17:12:02.522Z,12.65
2022-11-19T17:14:38.503Z,13.20
2022-11-19T17:17:41.384Z,12.98
2022-11-19T17:20:32.610Z,13.63
2022-11-19T17:23:04.556Z,13.68
2022-11-19T17:25:35.978Z,13.15
2022-11-19T17:28:07.017Z,14.55
2022-11-19T17:30:37.286Z,13.48
2022-11-19T17:33:08.056Z,14.43
2022-11-19T17:35:44.726Z,12.52
2022-11-19T17:38:32.811Z,14.85
2022-11-19T17:41:05.313Z,12.73
2022-11-19T17:43:55.184Z,14.23
2022-11-19T17:46:27.284Z,15.32
2022-11-19T17:48:57.796Z,13.48
2022-11-19T17:51:29.245Z,13.93
2022-11-19T17:54:00.056Z,14.48
2022-11-19T17:56:31.894Z,13.82
2022-11-19T17:59:02.504Z,13.15
2022-11-19T18:01:32.815Z,14.93
2022-11-19T18:04:02.989Z,12.90
2022-11-19T18:06:33.022Z,13.63
2022-11-19T18:09:03.092Z,12.82
2022-11-19T18:11:33.776Z,13.13
2022-11-19T18:14:05.485Z,14.85
2022-11-19T18:16:40.486Z,12.93
2022-11-19T18:19:16.862Z,15.18
2022-11-19T18:21:48.330Z,13.07
2022-11-19T18:24:19.100Z,13.85
2022-11-19T18:26:49.892Z,14.60
2022-11-19T18:29:20.544Z,13.70
2022-11-19T18:31:55.999Z,13.15
2022-11-19T18:34:27.540Z,13.65
2022-11-19T18:36:57.715Z,12.88
2022-11-19T18:39:28.068Z,14.55
2022-11-19T18:41:58.577Z,13.80
2022-11-19T18:44:37.647Z,12.63
2022-11-19T18:47:10.607Z,12.88
2022-11-19T18:49:41.319Z,13.10
2022-11-19T18:52:17.096Z,12.73
2022-11-19T18:54:47.843Z,13.07
2022-11-19T18:57:18.621Z,13.55
2022-11-19T18:59:48.882Z,13.83
2022-11-19T19:02:19.291Z,11.40
2022-11-19T19:04:51.000Z,12.43
2022-11-19T19:07:21.775Z,12.75
2022-11-19T19:09:52.082Z,11.38
2022-11-19T19:12:23.668Z,12.93
2022-11-19T19:17:28.517Z,11.90
2022-11-19T19:22:28.648Z,12.13
2022-11-19T19:24:59.011Z,11.43
2022-11-19T19:27:29.327Z,11.07
2022-11-19T19:29:59.847Z,12.73
2022-11-19T19:32:30.895Z,11.18
2022-11-19T19:35:01.116Z,12.10
2022-11-19T19:37:31.725Z,12.00
2022-11-19T19:40:01.957Z,10.23
2022-11-19T19:42:32.212Z,11.65
2022-11-19T19:45:02.468Z,11.63
2022-11-19T19:47:33.397Z,12.13
2022-11-19T19:50:03.592Z,10.77
2022-11-19T19:52:33.779Z,11.20
2022-11-19T19:55:03.819Z,12.30
2022-11-19T19:57:33.835Z,11.40
2022-11-19T20:00:03.939Z,12.30
2022-11-19T20:02:41.981Z,11.48
2022-11-19T20:05:12.453Z,11.70
2022-11-19T20:07:42.802Z,11.90
2022-11-19T20:10:13.013Z,12.02
2022-11-19T20:13:01.364Z,10.70
2022-11-19T20:15:31.684Z,10.38
2022-11-19T20:18:02.136Z,11.10
2022-11-19T20:20:32.427Z,12.05
2022-11-19T20:23:02.663Z,11.00
2022-11-19T20:25:32.987Z,10.95
2022-11-19T20:28:03.388Z,11.52
2022-11-19T20:30:33.600Z,12.10
2022-11-19T20:33:03.944Z,32.88
2022-11-19T20:35:34.173Z,11.52
2022-11-19T20:38:04.506Z,12.60
2022-11-19T20:40:34.786Z,11.23
2022-11-19T20:43:23.990Z,13.02
2022-11-19T20:45:54.256Z,15.07
2022-11-19T20:48:24.530Z,13.45
2022-11-19T20:50:59.839Z,12.23
2022-11-19T20:53:30.094Z,12.80
2022-11-19T20:56:05.609Z,12.80
2022-11-19T20:58:36.370Z,14.07
2022-11-19T21:01:09.578Z,12.93
2022-11-19T21:03:40.344Z,13.77
2022-11-19T21:06:11.086Z,13.35
2022-11-19T21:08:41.321Z,13.60
2022-11-19T21:11:14.748Z,17.30
2022-11-19T21:13:46.466Z,14.10
2022-11-19T21:16:19.610Z,14.43
2022-11-19T21:18:51.046Z,14.30
2022-11-19T21:21:23.484Z,14.83
2022-11-19T21:23:55.800Z,13.93
2022-11-19T21:26:28.236Z,14.50
2022-11-19T21:29:00.556Z,13.65
2022-11-19T21:31:50.519Z,15.07
2022-11-19T21:34:24.805Z,14.77
2022-11-19T21:36:58.160Z,15.75
2022-11-19T21:39:28.739Z,15.15
2022-11-19T21:41:59.117Z,15.93
2022-11-19T21:44:30.347Z,15.23
2022-11-19T21:49:30.355Z,15.10
2022-11-19T21:54:38.342Z,21.13
2022-11-19T21:57:08.565Z,17.63
2022-11-19T21:59:38.847Z,15.32
2022-11-19T22:02:09.163Z,14.00
2022-11-19T22:04:39.652Z,13.73
2022-11-19T22:07:09.910Z,13.95
2022-11-19T22:09:40.247Z,13.67
2022-11-19T22:12:10.430Z,13.85
2022-11-19T22:14:40.675Z,15.80
2022-11-19T22:17:10.952Z,126.90
2022-11-19T22:19:41.201Z,15.50
2022-11-19T22:22:11.404Z,60.60
2022-11-19T22:24:41.642Z,74.18
2022-11-19T22:27:11.928Z,13.93
2022-11-19T22:29:42.341Z,12.95
2022-11-19T22:32:12.705Z,13.95
2022-11-19T22:34:43.061Z,13.18
2022-11-19T22:37:13.360Z,13.30
2022-11-19T22:39:43.598Z,259.90
2022-11-19T22:42:14.127Z,13.38
2022-11-19T22:44:44.718Z,12.67
2022-11-19T22:47:16.714Z,13.20
2022-11-19T22:49:46.935Z,14.18
2022-11-19T22:52:18.241Z,13.15
2022-11-19T22:54:48.541Z,13.52
2022-11-19T22:57:18.799Z,14.25
2022-11-19T22:59:48.877Z,13.52
2022-11-19T23:02:18.892Z,13.75
2022-11-19T23:04:48.996Z,14.18
2022-11-19T23:07:19.068Z,14.40
2022-11-19T23:09:49.193Z,13.00
2022-11-19T23:12:37.644Z,12.75
2022-11-19T23:15:08.233Z,15.50
2022-11-19T23:17:45.533Z,15.20
2022-11-19T23:20:15.853Z,14.45
2022-11-19T23:22:46.034Z,12.43
2022-11-19T23:25:16.183Z,13.32
2022-11-19T23:27:46.414Z,13.02
2022-11-19T23:30:16.629Z,12.48
2022-11-19T23:32:46.947Z,12.60
2022-11-19T23:35:17.321Z,12.63
2022-11-19T23:37:47.643Z,13.38
2022-11-19T23:40:17.973Z,13.52
2022-11-19T23:42:51.844Z,12.97
2022-11-19T23:45:22.466Z,13.27
2022-11-19T23:47:53.164Z,14.10
2022-11-19T23:50:23.408Z,13.37
2022-11-19T23:52:53.663Z,13.13
2022-11-19T23:55:23.876Z,13.10
2022-11-19T23:57:54.123Z,13.00
